Time;durP1;ratioP1;P1;durP2;ratioP2;P2;SDS_P1;SDS_P2;PMS_P1;PMS_P2;Temp;Humidity;BMP_temperature;BMP_pressure;BME280_temperature;BME280_humidity;BME280_pressure;Samples;Min_cycle;Max_cycle;Signal;HPM_P1;HPM_P2
2021/12/03 00:01:30;;;;;;;0.20;0.20;;;;;;;;;;5037828;28;20044;-75
2021/12/03 00:03:55;;;;;;;0.10;0.10;;;;;;;;;;5033578;28;20475;-75
2021/12/03 00:06:21;;;;;;;0.10;0.10;;;;;;;;;;5046869;28;20033;-75
2021/12/03 00:08:48;;;;;;;0.05;0.05;;;;;;;;;;5030909;28;20033;-75
2021/12/03 00:11:14;;;;;;;0.20;0.20;;;;;;;;;;5038937;28;20028;-75
2021/12/03 00:13:40;;;;;;;0.10;0.10;;;;;;;;;;5034375;28;20048;-75
2021/12/03 00:16:09;;;;;;;0.52;0.52;;;;;;;;;;5037838;28;20040;-76
2021/12/03 00:18:35;;;;;;;0.15;0.15;;;;;;;;;;5032714;28;20095;-76
2021/12/03 00:21:04;;;;;;;0.10;0.10;;;;;;;;;;5037579;28;20115;-76
2021/12/03 00:23:30;;;;;;;0.10;0.10;;;;;;;;;;5031336;28;20068;-76
2021/12/03 00:25:58;;;;;;;1.15;1.10;;;;;;;;;;5037203;28;20040;-76
2021/12/03 00:28:24;;;;;;;0.10;0.10;;;;;;;;;;5034519;28;20384;-76
2021/12/03 00:30:50;;;;;;;0.08;0.08;;;;;;;;;;5046455;28;20029;-76
2021/12/03 00:33:16;;;;;;;0.10;0.10;;;;;;;;;;5047834;28;20051;-76
2021/12/03 00:35:42;;;;;;;0.13;0.13;;;;;;;;;;5041466;28;20704;-76
2021/12/03 00:38:08;;;;;;;0.10;0.10;;;;;;;;;;5034970;28;20052;-76
2021/12/03 00:40:36;;;;;;;0.10;0.10;;;;;;;;;;5041849;28;20033;-76
2021/12/03 00:43:03;;;;;;;0.05;0.05;;;;;;;;;;5045532;28;20502;-75
2021/12/03 00:45:31;;;;;;;0.85;0.85;;;;;;;;;;5052837;28;20131;-75
2021/12/03 00:47:57;;;;;;;0.10;0.10;;;;;;;;;;5040386;28;20589;-74
2021/12/03 00:50:23;;;;;;;0.10;0.10;;;;;;;;;;5032594;28;20021;-74
2021/12/03 00:52:50;;;;;;;0.10;0.10;;;;;;;;;;5030617;28;20661;-76
2021/12/03 00:55:16;;;;;;;0.10;0.10;;;;;;;;;;5034844;28;20068;-76
2021/12/03 00:57:42;;;;;;;0.10;0.10;;;;;;;;;;5029122;28;20057;-75
2021/12/03 01:00:22;;;;;;;0.08;0.08;;;;;;;;;;5037869;28;20064;-75
2021/12/03 01:02:49;;;;;;;0.10;0.10;;;;;;;;;;5031457;28;20045;-76
2021/12/03 01:05:14;;;;;;;0.10;0.10;;;;;;;;;;5035047;28;20036;-75
2021/12/03 01:07:40;;;;;;;0.10;0.10;;;;;;;;;;5044675;28;20025;-75
2021/12/03 01:10:07;;;;;;;0.40;0.40;;;;;;;;;;5034428;28;20025;-75
2021/12/03 01:12:33;;;;;;;0.40;0.40;;;;;;;;;;5041270;28;20059;-76
2021/12/03 01:14:59;;;;;;;0.50;0.50;;;;;;;;;;5042695;28;20127;-75
2021/12/03 01:17:26;;;;;;;0.70;0.70;;;;;;;;;;5048211;28;20025;-75
2021/12/03 01:19:52;;;;;;;3.10;1.27;;;;;;;;;;5041954;28;20029;-75
2021/12/03 01:22:18;;;;;;;0.63;0.63;;;;;;;;;;5040057;28;20041;-76
2021/12/03 01:24:44;;;;;;;0.10;0.10;;;;;;;;;;5029117;28;20032;-75
2021/12/03 01:27:10;;;;;;;0.17;0.17;;;;;;;;;;5040655;28;20037;-75
2021/12/03 01:29:36;;;;;;;0.00;0.00;;;;;;;;;;5040477;28;20049;-75
2021/12/03 01:32:02;;;;;;;0.10;0.10;;;;;;;;;;5034673;28;20087;-76
2021/12/03 01:34:28;;;;;;;0.10;0.10;;;;;;;;;;5033504;28;20653;-76
2021/12/03 01:36:54;;;;;;;0.10;0.10;;;;;;;;;;5033316;28;20082;-75
2021/12/03 01:39:20;;;;;;;0.10;0.10;;;;;;;;;;5030562;28;20021;-75
2021/12/03 01:41:46;;;;;;;0.10;0.10;;;;;;;;;;5032732;28;20388;-76
2021/12/03 01:44:12;;;;;;;0.10;0.10;;;;;;;;;;5034996;28;20523;-75
2021/12/03 01:46:38;;;;;;;0.47;0.47;;;;;;;;;;5036704;28;20033;-76
2021/12/03 01:49:05;;;;;;;0.10;0.10;;;;;;;;;;5030188;28;20132;-76
2021/12/03 01:51:31;;;;;;;0.08;0.08;;;;;;;;;;5045054;28;20025;-76
2021/12/03 01:53:58;;;;;;;0.20;0.20;;;;;;;;;;5041387;28;20043;-76
2021/12/03 01:56:29;;;;;;;0.35;0.35;;;;;;;;;;5038683;28;20033;-76
2021/12/03 01:58:55;;;;;;;0.20;0.20;;;;;;;;;;5034109;28;20049;-76
2021/12/03 02:01:23;;;;;;;0.10;0.10;;;;;;;;;;5029381;28;20060;-76
2021/12/03 02:03:53;;;;;;;0.00;0.00;;;;;;;;;;5027179;28;20129;-75
2021/12/03 02:06:20;;;;;;;0.10;0.10;;;;;;;;;;5042199;28;20037;-76
2021/12/03 02:08:46;;;;;;;0.10;0.10;;;;;;;;;;5047651;28;20140;-76
2021/12/03 02:11:13;;;;;;;0.17;0.17;;;;;;;;;;5040907;28;20779;-76
2021/12/03 02:13:39;;;;;;;0.10;0.10;;;;;;;;;;5044122;28;20116;-76
2021/12/03 02:16:06;;;;;;;0.10;0.10;;;;;;;;;;5048629;28;20141;-76
2021/12/03 02:18:32;;;;;;;0.10;0.10;;;;;;;;;;5034838;28;20491;-76
2021/12/03 02:20:59;;;;;;;0.08;0.08;;;;;;;;;;5045417;28;20032;-75
2021/12/03 02:23:26;;;;;;;2.45;0.52;;;;;;;;;;5040500;28;20090;-76
2021/12/03 02:25:52;;;;;;;0.10;0.10;;;;;;;;;;5037921;28;20443;-76
2021/12/03 02:28:19;;;;;;;0.13;0.13;;;;;;;;;;5048152;28;20033;-75
2021/12/03 02:30:47;;;;;;;0.10;0.10;;;;;;;;;;5038639;28;20045;-76
2021/12/03 02:33:12;;;;;;;0.30;0.30;;;;;;;;;;5044599;28;20031;-76
2021/12/03 02:35:43;;;;;;;0.10;0.10;;;;;;;;;;5032630;28;20120;-76
2021/12/03 02:38:10;;;;;;;0.52;0.52;;;;;;;;;;5039034;28;20037;-76
2021/12/03 02:40:36;;;;;;;0.10;0.10;;;;;;;;;;5034743;28;20611;-76
2021/12/03 02:43:02;;;;;;;0.57;0.57;;;;;;;;;;5041490;28;20054;-76
2021/12/03 02:45:28;;;;;;;0.10;0.10;;;;;;;;;;5033078;28;20030;-76
2021/12/03 02:47:54;;;;;;;0.10;0.10;;;;;;;;;;5046759;28;20025;-76
2021/12/03 02:50:19;;;;;;;0.20;0.20;;;;;;;;;;5036032;28;20022;-76
2021/12/03 02:52:47;;;;;;;0.10;0.10;;;;;;;;;;5041142;28;20029;-76
2021/12/03 02:55:13;;;;;;;0.10;0.10;;;;;;;;;;5044217;28;20282;-76
2021/12/03 02:57:39;;;;;;;0.22;0.22;;;;;;;;;;5038404;28;20028;-76
2021/12/03 03:00:07;;;;;;;0.10;0.10;;;;;;;;;;5036169;28;20040;-76
2021/12/03 03:02:33;;;;;;;0.52;0.52;;;;;;;;;;5035084;28;20052;-76
2021/12/03 03:04:59;;;;;;;0.10;0.10;;;;;;;;;;5046191;28;20061;-76
2021/12/03 03:07:25;;;;;;;0.22;0.22;;;;;;;;;;5040935;28;20047;-76
2021/12/03 03:09:51;;;;;;;0.10;0.10;;;;;;;;;;5044607;28;20476;-76
2021/12/03 03:12:17;;;;;;;0.50;0.30;;;;;;;;;;5035540;28;20033;-76
2021/12/03 03:14:46;;;;;;;0.10;0.10;;;;;;;;;;5038056;28;20058;-76
2021/12/03 03:17:13;;;;;;;0.10;0.10;;;;;;;;;;5033421;28;20468;-76
2021/12/03 03:19:38;;;;;;;0.10;0.10;;;;;;;;;;5036239;28;20091;-76
2021/12/03 03:22:04;;;;;;;0.10;0.10;;;;;;;;;;5032460;28;20049;-76
2021/12/03 03:24:30;;;;;;;0.17;0.17;;;;;;;;;;5032953;28;20487;-76
2021/12/03 03:26:57;;;;;;;0.10;0.10;;;;;;;;;;5041762;28;20045;-76
2021/12/03 03:29:23;;;;;;;0.52;0.50;;;;;;;;;;5042914;28;20040;-76
2021/12/03 03:31:49;;;;;;;0.10;0.10;;;;;;;;;;5042397;28;20076;-77
2021/12/03 03:34:14;;;;;;;0.10;0.10;;;;;;;;;;5032415;28;20492;-76
2021/12/03 03:36:44;;;;;;;0.10;0.10;;;;;;;;;;5039583;28;20119;-76
2021/12/03 03:39:12;;;;;;;0.10;0.10;;;;;;;;;;5043301;28;20575;-76
2021/12/03 03:41:38;;;;;;;0.10;0.10;;;;;;;;;;5034604;28;20041;-76
2021/12/03 03:44:04;;;;;;;0.47;0.45;;;;;;;;;;5045203;28;20053;-76
2021/12/03 03:46:31;;;;;;;0.52;0.52;;;;;;;;;;5044932;28;20091;-76
2021/12/03 03:48:57;;;;;;;0.00;0.00;;;;;;;;;;5036733;28;20136;-76
2021/12/03 03:51:23;;;;;;;0.13;0.13;;;;;;;;;;5040735;28;20112;-76
2021/12/03 03:53:49;;;;;;;0.10;0.10;;;;;;;;;;5031675;28;20063;-76
2021/12/03 03:56:15;;;;;;;0.00;0.00;;;;;;;;;;5041641;28;20041;-76
2021/12/03 03:58:41;;;;;;;0.10;0.10;;;;;;;;;;5040773;28;20037;-76
2021/12/03 04:01:08;;;;;;;0.10;0.10;;;;;;;;;;5042174;28;20471;-76
2021/12/03 04:03:34;;;;;;;0.10;0.10;;;;;;;;;;5044366;28;20064;-76
2021/12/03 04:06:01;;;;;;;0.10;0.10;;;;;;;;;;5034178;28;20060;-76
2021/12/03 04:08:30;;;;;;;1.45;0.80;;;;;;;;;;5045783;28;20848;-76
2021/12/03 04:10:57;;;;;;;0.10;0.10;;;;;;;;;;5037050;28;20040;-76
2021/12/03 04:13:23;;;;;;;0.10;0.10;;;;;;;;;;5034401;28;20075;-76
2021/12/03 04:15:49;;;;;;;0.10;0.10;;;;;;;;;;5033685;28;20122;-76
2021/12/03 04:18:15;;;;;;;0.10;0.10;;;;;;;;;;5041318;28;20038;-77
2021/12/03 04:20:41;;;;;;;0.10;0.10;;;;;;;;;;5030928;28;20380;-76
2021/12/03 04:23:08;;;;;;;0.32;0.32;;;;;;;;;;5031594;28;20136;-76
2021/12/03 04:25:34;;;;;;;0.10;0.10;;;;;;;;;;5045961;28;20092;-74
2021/12/03 04:28:00;;;;;;;0.43;0.43;;;;;;;;;;5037325;28;20032;-76
2021/12/03 04:30:28;;;;;;;0.40;0.40;;;;;;;;;;5039355;28;20051;-76
2021/12/03 04:32:54;;;;;;;0.10;0.10;;;;;;;;;;5044464;28;20715;-76
2021/12/03 04:35:20;;;;;;;0.10;0.10;;;;;;;;;;5046269;28;20487;-76
2021/12/03 04:37:46;;;;;;;0.10;0.10;;;;;;;;;;5042731;28;20039;-76
2021/12/03 04:40:13;;;;;;;0.30;0.30;;;;;;;;;;5029761;28;20057;-76
2021/12/03 04:42:39;;;;;;;0.10;0.10;;;;;;;;;;5034504;28;20120;-76
2021/12/03 04:45:06;;;;;;;0.10;0.10;;;;;;;;;;5039094;28;20039;-76
2021/12/03 04:47:32;;;;;;;0.10;0.10;;;;;;;;;;5044275;28;20035;-76
2021/12/03 04:49:58;;;;;;;0.30;0.30;;;;;;;;;;5045235;28;20479;-76
2021/12/03 04:52:25;;;;;;;0.10;0.10;;;;;;;;;;5042990;28;20029;-76
2021/12/03 04:54:51;;;;;;;0.10;0.10;;;;;;;;;;5035684;28;20034;-76
2021/12/03 04:57:17;;;;;;;0.68;0.68;;;;;;;;;;5039843;28;20071;-74
2021/12/03 04:59:43;;;;;;;0.10;0.10;;;;;;;;;;5038334;28;20261;-75
2021/12/03 05:02:08;;;;;;;0.10;0.10;;;;;;;;;;5030390;28;20595;-75
2021/12/03 05:04:38;;;;;;;0.10;0.10;;;;;;;;;;5035945;28;20435;-75
2021/12/03 05:09:34;;;;;;;0.38;0.38;;;;;;;;;;5039177;28;20035;-75
2021/12/03 05:12:00;;;;;;;0.35;0.35;;;;;;;;;;5037859;28;20021;-75
2021/12/03 05:14:26;;;;;;;0.15;0.15;;;;;;;;;;5033400;28;20053;-75
2021/12/03 05:16:52;;;;;;;0.80;0.55;;;;;;;;;;5045816;28;20043;-75
2021/12/03 05:19:19;;;;;;;0.10;0.10;;;;;;;;;;5037319;28;20112;-75
2021/12/03 05:21:45;;;;;;;0.20;0.20;;;;;;;;;;5029656;28;20033;-76
2021/12/03 05:24:11;;;;;;;0.10;0.10;;;;;;;;;;5040910;28;20158;-76
2021/12/03 05:26:38;;;;;;;0.75;0.75;;;;;;;;;;5032575;28;20441;-76
2021/12/03 05:29:05;;;;;;;0.10;0.10;;;;;;;;;;5031667;28;20021;-76
2021/12/03 05:31:31;;;;;;;0.10;0.10;;;;;;;;;;5032930;28;20033;-76
2021/12/03 05:33:57;;;;;;;0.10;0.10;;;;;;;;;;5029571;28;20142;-75
2021/12/03 05:36:23;;;;;;;0.10;0.10;;;;;;;;;;5040535;28;20057;-76
2021/12/03 05:38:49;;;;;;;0.10;0.10;;;;;;;;;;5030251;28;20107;-76
2021/12/03 05:41:15;;;;;;;0.10;0.10;;;;;;;;;;5035177;28;20052;-75
2021/12/03 05:43:41;;;;;;;0.10;0.10;;;;;;;;;;5043541;28;20033;-75
2021/12/03 05:46:07;;;;;;;1.25;0.65;;;;;;;;;;5034722;28;20052;-75
2021/12/03 05:48:33;;;;;;;0.20;0.20;;;;;;;;;;5048310;28;20033;-75
2021/12/03 05:50:59;;;;;;;0.40;0.40;;;;;;;;;;5049510;28;20741;-76
2021/12/03 05:53:25;;;;;;;0.25;0.25;;;;;;;;;;5040583;28;20040;-76
2021/12/03 05:55:51;;;;;;;0.10;0.10;;;;;;;;;;5042571;28;20123;-76
2021/12/03 05:58:18;;;;;;;0.10;0.10;;;;;;;;;;5038974;28;20108;-76
2021/12/03 06:00:44;;;;;;;0.52;0.52;;;;;;;;;;5043439;28;20033;-76
2021/12/03 06:03:10;;;;;;;0.10;0.10;;;;;;;;;;5037564;28;20040;-76
2021/12/03 06:05:36;;;;;;;0.10;0.10;;;;;;;;;;5033851;28;20402;-76
2021/12/03 06:08:03;;;;;;;0.17;0.17;;;;;;;;;;5040878;28;20155;-76
2021/12/03 06:10:30;;;;;;;0.17;0.15;;;;;;;;;;5048830;28;20638;-76
2021/12/03 06:12:56;;;;;;;0.88;0.68;;;;;;;;;;5044467;28;20108;-76
2021/12/03 06:15:22;;;;;;;0.10;0.10;;;;;;;;;;5033908;28;20038;-76
2021/12/03 06:17:48;;;;;;;0.10;0.10;;;;;;;;;;5035291;28;20030;-76
2021/12/03 06:20:16;;;;;;;0.10;0.10;;;;;;;;;;5037587;28;20082;-76
2021/12/03 06:22:42;;;;;;;0.10;0.10;;;;;;;;;;5048105;28;20053;-76
2021/12/03 06:25:09;;;;;;;0.10;0.10;;;;;;;;;;5041909;28;20025;-76
2021/12/03 06:27:36;;;;;;;0.40;0.40;;;;;;;;;;5033385;28;20033;-76
2021/12/03 06:30:03;;;;;;;0.10;0.10;;;;;;;;;;5046368;28;20032;-76
2021/12/03 06:32:29;;;;;;;0.10;0.10;;;;;;;;;;5038449;28;20049;-76
2021/12/03 06:34:55;;;;;;;0.30;0.30;;;;;;;;;;5033300;28;20026;-76
2021/12/03 06:37:21;;;;;;;0.10;0.10;;;;;;;;;;5040009;28;20021;-76
2021/12/03 06:39:47;;;;;;;0.22;0.22;;;;;;;;;;5041409;28;20040;-76
2021/12/03 06:42:13;;;;;;;0.00;0.00;;;;;;;;;;5035730;28;20506;-73
2021/12/03 06:44:39;;;;;;;0.10;0.10;;;;;;;;;;5042289;28;20037;-74
2021/12/03 06:47:05;;;;;;;1.38;0.70;;;;;;;;;;5036021;28;20033;-73
2021/12/03 06:49:33;;;;;;;0.25;0.25;;;;;;;;;;5042790;28;20022;-76
2021/12/03 06:52:05;;;;;;;0.10;0.10;;;;;;;;;;5034755;28;20146;-76
2021/12/03 06:54:34;;;;;;;0.10;0.10;;;;;;;;;;5049020;28;20041;-76
2021/12/03 06:57:01;;;;;;;0.20;0.20;;;;;;;;;;5038459;28;20404;-76
2021/12/03 06:59:27;;;;;;;0.90;0.90;;;;;;;;;;5037831;28;20184;-76
2021/12/03 07:01:53;;;;;;;0.17;0.17;;;;;;;;;;5034685;28;20029;-77
2021/12/03 07:04:20;;;;;;;0.32;0.32;;;;;;;;;;5041097;28;20036;-77
2021/12/03 07:06:46;;;;;;;0.70;0.70;;;;;;;;;;5039736;28;20064;-77
2021/12/03 07:09:12;;;;;;;0.10;0.10;;;;;;;;;;5043582;28;20067;-77
2021/12/03 07:11:38;;;;;;;2.38;1.95;;;;;;;;;;5038482;28;20392;-77
2021/12/03 07:14:04;;;;;;;2.17;2.08;;;;;;;;;;5032771;28;20025;-76
2021/12/03 07:16:31;;;;;;;1.00;0.95;;;;;;;;;;5031393;28;20030;-77
2021/12/03 07:18:57;;;;;;;0.10;0.10;;;;;;;;;;5036254;28;20144;-77
2021/12/03 07:21:23;;;;;;;0.10;0.10;;;;;;;;;;5036581;28;20033;-76
2021/12/03 07:23:53;;;;;;;0.20;0.20;;;;;;;;;;5043064;28;20045;-77
2021/12/03 07:26:19;;;;;;;0.20;0.20;;;;;;;;;;5040673;28;20376;-76
2021/12/03 07:28:45;;;;;;;0.10;0.10;;;;;;;;;;5036201;28;20025;-76
2021/12/03 07:31:11;;;;;;;0.10;0.10;;;;;;;;;;5043409;28;20029;-77
2021/12/03 07:33:37;;;;;;;0.32;0.32;;;;;;;;;;5044553;28;20488;-74
2021/12/03 07:36:05;;;;;;;0.95;0.57;;;;;;;;;;5029471;28;20040;-74
2021/12/03 07:38:32;;;;;;;0.10;0.10;;;;;;;;;;5044473;28;20033;-74
2021/12/03 07:41:01;;;;;;;0.10;0.10;;;;;;;;;;5038413;28;20029;-74
2021/12/03 07:43:27;;;;;;;0.40;0.40;;;;;;;;;;5031023;28;20035;-76
2021/12/03 07:45:53;;;;;;;0.60;0.57;;;;;;;;;;5031280;28;20036;-76
2021/12/03 07:48:21;;;;;;;0.98;0.75;;;;;;;;;;5037590;28;20395;-77
2021/12/03 07:50:47;;;;;;;0.40;0.40;;;;;;;;;;5033936;28;20033;-77
2021/12/03 07:53:16;;;;;;;0.65;0.65;;;;;;;;;;5040830;28;20288;-76
2021/12/03 07:55:43;;;;;;;1.15;1.05;;;;;;;;;;5041012;28;20029;-75
2021/12/03 07:58:09;;;;;;;1.17;0.90;;;;;;;;;;5041526;28;20120;-76
2021/12/03 08:00:35;;;;;;;1.45;1.27;;;;;;;;;;5033256;28;20078;-76
2021/12/03 08:03:01;;;;;;;0.10;0.10;;;;;;;;;;5037508;28;20030;-75
2021/12/03 08:05:27;;;;;;;0.10;0.10;;;;;;;;;;5029098;28;20094;-75
2021/12/03 08:07:53;;;;;;;0.10;0.10;;;;;;;;;;5048201;28;20098;-75
2021/12/03 08:10:20;;;;;;;0.10;0.10;;;;;;;;;;5046438;28;20017;-75
2021/12/03 08:12:54;;;;;;;0.20;0.20;;;;;;;;;;5040269;28;20028;-76
2021/12/03 08:15:20;;;;;;;2.47;1.05;;;;;;;;;;5036337;28;20488;-76
2021/12/03 08:17:49;;;;;;;0.10;0.10;;;;;;;;;;5034601;28;20388;-76
2021/12/03 08:20:16;;;;;;;2.00;0.50;;;;;;;;;;5039136;28;20027;-75
2021/12/03 08:22:43;;;;;;;0.28;0.17;;;;;;;;;;5035225;28;20045;-75
2021/12/03 08:25:09;;;;;;;0.10;0.10;;;;;;;;;;5041604;28;20029;-77
2021/12/03 08:27:35;;;;;;;0.20;0.15;;;;;;;;;;5034080;28;20052;-76
2021/12/03 08:30:01;;;;;;;0.10;0.10;;;;;;;;;;5044089;28;20060;-76
2021/12/03 08:32:27;;;;;;;0.10;0.10;;;;;;;;;;5043621;28;20060;-76
2021/12/03 08:34:53;;;;;;;0.13;0.13;;;;;;;;;;5039872;28;20025;-77
2021/12/03 08:37:19;;;;;;;0.10;0.10;;;;;;;;;;5030609;28;20029;-77
2021/12/03 08:39:45;;;;;;;2.65;0.63;;;;;;;;;;5034719;28;20037;-77
2021/12/03 08:42:12;;;;;;;0.15;0.15;;;;;;;;;;5030066;28;20378;-76
2021/12/03 08:44:38;;;;;;;55.05;2.28;;;;;;;;;;5037847;28;20119;-76
2021/12/03 08:47:06;;;;;;;1.80;0.73;;;;;;;;;;5040018;28;20533;-76
2021/12/03 08:49:36;;;;;;;0.85;0.68;;;;;;;;;;5030823;28;20037;-77
2021/12/03 08:54:49;;;;;;;0.10;0.10;;;;;;;;;;5038209;28;20079;-77
2021/12/03 08:57:16;;;;;;;0.15;0.15;;;;;;;;;;5035610;28;20037;-77
2021/12/03 08:59:42;;;;;;;0.38;0.38;;;;;;;;;;5033895;28;20033;-77
2021/12/03 09:02:08;;;;;;;0.13;0.13;;;;;;;;;;5038061;28;20468;-76
2021/12/03 09:04:34;;;;;;;0.10;0.10;;;;;;;;;;5029765;28;20080;-76
2021/12/03 09:07:01;;;;;;;0.25;0.25;;;;;;;;;;5029851;28;20033;-78
2021/12/03 09:09:27;;;;;;;0.10;0.10;;;;;;;;;;5032513;28;20107;-76
2021/12/03 09:11:54;;;;;;;0.10;0.10;;;;;;;;;;5038397;28;20037;-76
2021/12/03 09:14:36;;;;;;;0.10;0.10;;;;;;;;;;5035826;28;20017;-76
2021/12/03 09:19:58;;;;;;;0.25;0.25;;;;;;;;;;5035983;28;20056;-75
2021/12/03 09:22:36;;;;;;;0.17;0.17;;;;;;;;;;5040248;28;20136;-79
2021/12/03 09:25:04;;;;;;;0.30;0.30;;;;;;;;;;5038695;28;20432;-75
2021/12/03 09:27:30;;;;;;;0.90;0.90;;;;;;;;;;5039140;28;20029;-75
2021/12/03 09:29:57;;;;;;;0.10;0.10;;;;;;;;;;5040608;28;20425;-76
2021/12/03 09:32:27;;;;;;;0.77;0.77;;;;;;;;;;5045775;28;20055;-76
2021/12/03 09:34:53;;;;;;;0.75;0.60;;;;;;;;;;5042749;28;20029;-85
2021/12/03 09:37:19;;;;;;;0.80;0.47;;;;;;;;;;5042261;28;20040;-73
2021/12/03 09:39:46;;;;;;;0.28;0.20;;;;;;;;;;5038082;28;20033;-74
2021/12/03 09:42:14;;;;;;;0.88;0.85;;;;;;;;;;5035824;28;20029;-74
2021/12/03 09:44:41;;;;;;;0.47;0.47;;;;;;;;;;5037177;28;20093;-76
2021/12/03 09:47:07;;;;;;;0.10;0.10;;;;;;;;;;5036720;28;20037;-76
2021/12/03 09:49:43;;;;;;;0.10;0.10;;;;;;;;;;5032946;28;20025;-77
2021/12/03 09:55:06;;;;;;;0.03;0.03;;;;;;;;;;5038668;28;20055;-72
2021/12/03 09:57:37;;;;;;;0.30;0.30;;;;;;;;;;5039548;28;20025;-72
2021/12/03 10:00:10;;;;;;;;;;;;;;;;;;5033899;28;20037;-73
2021/12/03 10:03:07;;;;;;;0.17;0.17;;;;;;;;;;5045113;28;19909;-72
2021/12/03 10:07:02;;;;;;;0.30;0.30;;;;;;;;;;5049081;28;20025;-73
2021/12/03 10:10:04;;;;;;;2.75;0.68;;;;;;;;;;5051656;28;20037;-72
2021/12/03 10:12:05;;;;;;;0.30;0.30;;;;;;;;;;5039483;28;20391;-73
2021/12/03 10:17:43;;;;;;;0.15;0.15;;;;;;;;;;5053987;28;20061;-71
2021/12/03 10:20:32;;;;;;;0.20;0.20;;;;;;;;;;5061911;28;20029;-69
2021/12/03 10:28:39;;;;;;;0.00;0.00;;;;;;;;;;5036864;28;20025;-72
2021/12/03 10:38:53;;;;;;;2.30;0.73;;;;;;;;;;5036856;28;20399;-72
2021/12/03 10:46:47;;;;;;;0.10;0.10;;;;;;;;;;5041764;28;20025;-71
2021/12/03 11:26:03;;;;;;;0.30;0.30;;;;;;;;;;5042333;28;20396;-71
2021/12/03 11:39:14;;;;;;;0.43;0.43;;;;;;;;;;5036193;28;20123;-71
2021/12/03 11:45:04;;;;;;;0.10;0.10;;;;;;;;;;5044965;28;20037;-71
2021/12/03 11:48:08;;;;;;;0.10;0.10;;;;;;;;;;5029858;28;20037;-71
2021/12/03 11:58:55;;;;;;;0.30;0.20;;;;;;;;;;5040495;28;20043;-71
2021/12/03 12:02:17;;;;;;;0.10;0.10;;;;;;;;;;5034960;28;20033;-70
2021/12/03 12:05:48;;;;;;;0.10;0.10;;;;;;;;;;5039603;28;20049;-71
2021/12/03 12:16:32;;;;;;;1.15;0.95;;;;;;;;;;5043654;28;20036;-74
2021/12/03 12:19:11;;;;;;;0.03;0.03;;;;;;;;;;5040498;28;20451;-74
2021/12/03 12:24:57;;;;;;;0.20;0.20;;;;;;;;;;5029277;28;20076;-74
2021/12/03 12:31:40;;;;;;;0.13;0.13;;;;;;;;;;5035253;28;20480;-73
2021/12/03 13:07:25;;;;;;;0.00;0.00;;;;;;;;;;5040476;28;20052;-75
2021/12/03 13:12:25;;;;;;;0.40;0.35;;;;;;;;;;5029299;28;20048;-72
2021/12/03 13:15:33;;;;;;;0.25;0.25;;;;;;;;;;5036093;28;20033;-73
2021/12/03 13:18:19;;;;;;;0.22;0.17;;;;;;;;;;5034978;28;20041;-74
2021/12/03 13:29:49;;;;;;;0.20;0.20;;;;;;;;;;5028801;28;20132;-74
2021/12/03 13:41:57;;;;;;;0.10;0.10;;;;;;;;;;5048597;28;20040;-75
2021/12/03 13:56:07;;;;;;;0.00;0.00;;;;;;;;;;5042497;28;20041;-75
2021/12/03 14:00:05;;;;;;;0.20;0.20;;;;;;;;;;5028876;28;20064;-73
2021/12/03 14:05:30;;;;;;;0.10;0.10;;;;;;;;;;5031842;28;20025;-74
2021/12/03 14:11:36;;;;;;;1.95;0.52;;;;;;;;;;5051773;28;20051;-74
2021/12/03 14:14:43;;;;;;;1.08;0.52;;;;;;;;;;5049875;28;20025;-74
2021/12/03 14:18:51;;;;;;;0.10;0.10;;;;;;;;;;5033484;28;20037;-74
2021/12/03 14:20:40;;;;;;;0.20;0.20;;;;;;;;;;5051776;28;20061;-73
2021/12/03 14:41:36;;;;;;;0.73;0.52;;;;;;;;;;5041827;28;20022;-74
2021/12/03 14:44:10;;;;;;;0.10;0.10;;;;;;;;;;5031325;28;20427;-74
2021/12/03 14:49:42;;;;;;;0.40;0.40;;;;;;;;;;5031169;28;20025;-75
2021/12/03 14:52:09;;;;;;;0.17;0.17;;;;;;;;;;5034075;28;20025;-74
2021/12/03 14:57:36;;;;;;;0.22;0.22;;;;;;;;;;5031519;28;20491;-74
2021/12/03 15:05:39;;;;;;;0.73;0.15;;;;;;;;;;5050418;28;20040;-73
2021/12/03 15:08:07;;;;;;;0.10;0.10;;;;;;;;;;5050022;28;20025;-73
2021/12/03 15:10:58;;;;;;;0.45;0.45;;;;;;;;;;5045684;28;20431;-75
2021/12/03 15:21:36;;;;;;;0.63;0.63;;;;;;;;;;5030511;28;20048;-73
2021/12/03 15:27:03;;;;;;;1.63;1.08;;;;;;;;;;5050184;28;20550;-74
2021/12/03 15:32:15;;;;;;;0.20;0.20;;;;;;;;;;5043265;28;20029;-73
2021/12/03 15:40:34;;;;;;;0.98;0.70;;;;;;;;;;5058803;28;20064;-74
2021/12/03 15:54:34;;;;;;;0.10;0.10;;;;;;;;;;5050097;28;20063;-73
2021/12/03 16:10:13;;;;;;;0.40;0.40;;;;;;;;;;5036912;28;20033;-74
2021/12/03 16:12:50;;;;;;;0.10;0.10;;;;;;;;;;5048915;28;20033;-73
2021/12/03 16:15:54;;;;;;;0.10;0.10;;;;;;;;;;5036635;28;20018;-74
2021/12/03 16:18:47;;;;;;;0.77;0.77;;;;;;;;;;5029183;28;20034;-74
2021/12/03 16:24:35;;;;;;;0.10;0.10;;;;;;;;;;5049161;28;20132;-74
2021/12/03 16:27:14;;;;;;;0.17;0.17;;;;;;;;;;5028845;28;20068;-73
2021/12/03 16:43:48;;;;;;;0.10;0.10;;;;;;;;;;5034614;28;20044;-73
2021/12/03 16:52:08;;;;;;;0.35;0.35;;;;;;;;;;5043579;28;20096;-73
2021/12/03 16:54:41;;;;;;;0.43;0.43;;;;;;;;;;5037227;28;20112;-74
2021/12/03 16:57:08;;;;;;;0.30;0.30;;;;;;;;;;5048223;28;20033;-74
2021/12/03 16:59:34;;;;;;;0.10;0.10;;;;;;;;;;5037030;28;20047;-75
2021/12/03 17:02:07;;;;;;;0.10;0.10;;;;;;;;;;5028840;28;20036;-74
2021/12/03 17:10:21;;;;;;;7.32;2.92;;;;;;;;;;5028784;28;20040;-75
2021/12/03 17:15:52;;;;;;;0.55;0.55;;;;;;;;;;5041171;28;20033;-74
2021/12/03 17:24:01;;;;;;;0.28;0.28;;;;;;;;;;5048367;28;20139;-74
2021/12/03 17:27:07;;;;;;;0.17;0.17;;;;;;;;;;5048151;28;20032;-74
2021/12/03 17:29:33;;;;;;;0.75;0.68;;;;;;;;;;5034717;28;20033;-73
2021/12/03 17:48:39;;;;;;;0.00;0.00;;;;;;;;;;5032464;28;20075;-74
2021/12/03 17:56:17;;;;;;;0.30;0.30;;;;;;;;;;5042356;28;20033;-74
2021/12/03 17:58:57;;;;;;;0.20;0.20;;;;;;;;;;5042184;28;20029;-75
2021/12/03 18:04:03;;;;;;;0.20;0.20;;;;;;;;;;5042179;28;20120;-71
2021/12/03 18:06:52;;;;;;;1.50;1.33;;;;;;;;;;5032339;28;20492;-76
2021/12/03 18:17:44;;;;;;;0.20;0.20;;;;;;;;;;5032025;28;20052;-70
2021/12/03 18:45:09;;;;;;;0.20;0.20;;;;;;;;;;5048670;28;20108;-72
2021/12/03 18:48:01;;;;;;;0.10;0.10;;;;;;;;;;5036479;28;20163;-72
2021/12/03 18:50:59;;;;;;;0.15;0.15;;;;;;;;;;5033467;28;20075;-71
2021/12/03 18:53:50;;;;;;;0.50;0.50;;;;;;;;;;5046039;28;20392;-71
2021/12/03 18:56:35;;;;;;;0.30;0.30;;;;;;;;;;5029899;28;20036;-71
2021/12/03 18:59:07;;;;;;;0.30;0.30;;;;;;;;;;5032756;28;20561;-72
2021/12/03 19:01:34;;;;;;;0.20;0.20;;;;;;;;;;5042539;28;20036;-71
2021/12/03 19:04:18;;;;;;;0.17;0.17;;;;;;;;;;5031840;28;20373;-71
2021/12/03 19:06:53;;;;;;;0.60;0.40;;;;;;;;;;5029197;28;20041;-71
2021/12/03 19:09:25;;;;;;;0.50;0.40;;;;;;;;;;5034187;28;20099;-71
2021/12/03 19:14:21;;;;;;;0.20;0.20;;;;;;;;;;5067333;28;20107;-71
2021/12/03 19:16:47;;;;;;;1.15;0.98;;;;;;;;;;5036467;28;20123;-72
2021/12/03 19:19:16;;;;;;;0.10;0.10;;;;;;;;;;5034789;28;20044;-71
2021/12/03 19:21:43;;;;;;;0.10;0.10;;;;;;;;;;5029799;28;20057;-71
2021/12/03 19:24:10;;;;;;;0.10;0.10;;;;;;;;;;5038006;28;20041;-71
2021/12/03 19:26:42;;;;;;;0.10;0.10;;;;;;;;;;5042173;28;20037;-71
2021/12/03 19:29:08;;;;;;;0.50;0.50;;;;;;;;;;5041495;28;20029;-71
2021/12/03 19:31:34;;;;;;;0.28;0.28;;;;;;;;;;5050316;28;20092;-71
2021/12/03 19:34:00;;;;;;;0.47;0.45;;;;;;;;;;5049873;28;20100;-71
2021/12/03 19:36:27;;;;;;;0.10;0.10;;;;;;;;;;5045691;28;20029;-71
2021/12/03 19:38:55;;;;;;;0.10;0.10;;;;;;;;;;5034834;28;20043;-71
2021/12/03 19:43:51;;;;;;;0.30;0.30;;;;;;;;;;5038016;28;20114;-71
2021/12/03 19:46:20;;;;;;;0.20;0.20;;;;;;;;;;5049542;28;20082;-71
2021/12/03 19:51:23;;;;;;;0.10;0.10;;;;;;;;;;5045556;28;20495;-71
2021/12/03 19:53:55;;;;;;;0.45;0.45;;;;;;;;;;5029926;28;20381;-71
2021/12/03 19:56:25;;;;;;;0.30;0.30;;;;;;;;;;5030559;28;20467;-71
2021/12/03 19:58:52;;;;;;;0.57;0.57;;;;;;;;;;5030481;28;20113;-72
2021/12/03 20:01:18;;;;;;;0.45;0.45;;;;;;;;;;5036988;28;20040;-73
2021/12/03 20:03:44;;;;;;;0.90;0.55;;;;;;;;;;5032967;28;20500;-73
2021/12/03 20:06:10;;;;;;;0.10;0.10;;;;;;;;;;5029314;28;20025;-73
2021/12/03 20:08:36;;;;;;;0.32;0.32;;;;;;;;;;5036085;28;20121;-72
2021/12/03 20:11:05;;;;;;;0.10;0.10;;;;;;;;;;5040065;28;20826;-73
2021/12/03 20:13:34;;;;;;;1.67;1.50;;;;;;;;;;5029628;28;20056;-73
2021/12/03 20:18:40;;;;;;;0.32;0.30;;;;;;;;;;5031561;28;20033;-72
2021/12/03 20:21:08;;;;;;;0.30;0.30;;;;;;;;;;5044193;28;20051;-72
2021/12/03 20:23:40;;;;;;;0.20;0.20;;;;;;;;;;5033510;28;20069;-72
2021/12/03 20:28:54;;;;;;;0.38;0.38;;;;;;;;;;5047854;28;20177;-72
2021/12/03 20:31:24;;;;;;;0.38;0.38;;;;;;;;;;5042425;28;20052;-72
2021/12/03 20:36:48;;;;;;;0.35;0.35;;;;;;;;;;5031545;28;20404;-71
2021/12/03 20:39:17;;;;;;;0.10;0.10;;;;;;;;;;5036575;28;20056;-71
2021/12/03 20:41:55;;;;;;;0.10;0.10;;;;;;;;;;5030109;28;20300;-71
2021/12/03 20:49:44;;;;;;;0.22;0.22;;;;;;;;;;5031859;28;20079;-70
2021/12/03 20:52:18;;;;;;;0.20;0.20;;;;;;;;;;5028744;28;20048;-71
2021/12/03 20:57:41;;;;;;;0.30;0.30;;;;;;;;;;5039930;28;20047;-71
2021/12/03 21:10:47;;;;;;;0.10;0.10;;;;;;;;;;5033604;28;20029;-71
2021/12/03 21:13:22;;;;;;;0.85;0.85;;;;;;;;;;5048261;28;20029;-71
2021/12/03 21:16:07;;;;;;;0.10;0.10;;;;;;;;;;5048862;28;20048;-71
2021/12/03 21:21:30;;;;;;;0.43;0.43;;;;;;;;;;5039432;28;20116;-72
2021/12/03 21:23:57;;;;;;;0.43;0.43;;;;;;;;;;5028570;28;20280;-72
2021/12/03 21:26:24;;;;;;;0.17;0.17;;;;;;;;;;5028182;28;20476;-72